Time;durP1;ratioP1;P1;durP2;ratioP2;P2;SDS_P1;SDS_P2;PMS_P1;PMS_P2;Temp;Humidity;BMP_temperature;BMP_pressure;BME280_temperature;BME280_humidity;BME280_pressure;Samples;Min_cycle;Max_cycle;Signal;HPM_P1;HPM_P2
2021/01/15 00:00:23;;;;;;;13.82;9.25;;;;;;;-4.23;100.00;95719.59;1026828;28;20724;-74
2021/01/15 00:00:54;;;;;;;13.53;8.37;;;;;;;-4.23;100.00;95724.72;1026596;28;20026;-75
2021/01/15 00:01:24;;;;;;;12.47;8.23;;;;;;;-4.25;100.00;95716.41;1023047;28;20065;-74
2021/01/15 00:02:03;;;;;;;14.33;8.10;;;;;;;-4.26;100.00;95709.69;1022673;28;20023;-73
2021/01/15 00:02:34;;;;;;;14.95;8.18;;;;;;;-4.30;100.00;95709.22;1020125;29;20067;-73
2021/01/15 00:03:04;;;;;;;15.87;8.63;;;;;;;-4.33;100.00;95703.66;1020052;29;20103;-76
2021/01/15 00:03:36;;;;;;;13.83;8.60;;;;;;;-4.40;100.00;95695.84;1020261;28;20384;-73
2021/01/15 00:04:06;;;;;;;16.00;8.25;;;;;;;-4.25;100.00;95716.41;1018698;29;20027;-73
2021/01/15 00:04:37;;;;;;;12.00;9.20;;;;;;;-4.25;100.00;95716.41;1020756;29;20500;-75
2021/01/15 00:05:07;;;;;;;12.57;8.57;;;;;;;-4.54;100.00;95676.91;1018544;29;20063;-73
2021/01/15 00:05:38;;;;;;;13.23;9.27;;;;;;;-4.30;100.00;95713.56;1015090;29;20024;-72
2021/01/15 00:06:09;;;;;;;14.15;8.60;;;;;;;-4.36;100.00;95704.00;1022736;28;20027;-76
2021/01/15 00:06:39;;;;;;;13.27;8.57;;;;;;;-4.27;100.00;95711.44;1022279;28;20390;-76
2021/01/15 00:07:10;;;;;;;13.30;9.47;;;;;;;-4.27;100.00;95724.25;1026736;28;20022;-74
2021/01/15 00:07:40;;;;;;;14.53;9.03;;;;;;;-4.28;100.00;95711.63;1022955;28;20031;-75
2021/01/15 00:08:11;;;;;;;13.10;9.37;;;;;;;-4.29;100.00;95715.16;1030214;28;20513;-72
2021/01/15 00:08:41;;;;;;;13.23;9.50;;;;;;;-4.28;100.00;95719.31;1027690;28;20446;-74
2021/01/15 00:09:12;;;;;;;13.50;8.37;;;;;;;-4.31;100.00;95707.63;1022826;28;20019;-74
2021/01/15 00:09:42;;;;;;;14.23;8.47;;;;;;;-4.34;100.00;95712.31;1028761;28;20034;-72
2021/01/15 00:10:13;;;;;;;13.33;9.10;;;;;;;-4.36;100.00;95704.00;1022789;28;20024;-74
2021/01/15 00:10:43;;;;;;;13.93;9.30;;;;;;;-4.32;100.00;95715.50;1026914;28;20034;-74
2021/01/15 00:11:20;;;;;;;14.83;9.17;;;;;;;-4.48;100.00;95693.34;1026413;28;20018;-73
2021/01/15 00:11:50;;;;;;;13.00;8.77;;;;;;;-4.31;100.00;95717.88;1019619;29;20027;-74
2021/01/15 00:12:21;;;;;;;13.83;8.97;;;;;;;-4.33;100.00;95721.56;1022900;29;20121;-73
2021/01/15 00:12:51;;;;;;;13.93;9.23;;;;;;;-4.40;100.00;95711.22;1023684;28;20619;-74
2021/01/15 00:13:22;;;;;;;13.70;8.73;;;;;;;-4.33;100.00;95721.56;1026809;28;20035;-74
2021/01/15 00:13:53;;;;;;;14.87;9.40;;;;;;;-4.38;100.00;95716.97;1026646;28;20031;-73
2021/01/15 00:14:23;;;;;;;15.90;9.80;;;;;;;-4.34;100.00;95722.56;1014843;29;20021;-75
2021/01/15 00:14:54;;;;;;;13.27;8.70;;;;;;;-4.35;100.00;95723.53;1013563;29;20028;-73
2021/01/15 00:15:24;;;;;;;16.13;8.67;;;;;;;-4.47;100.00;95701.84;1018604;29;20040;-75
2021/01/15 00:15:55;;;;;;;14.07;8.90;;;;;;;-4.39;100.00;95723.06;1023010;28;20027;-74
2021/01/15 00:16:27;;;;;;;12.20;8.87;;;;;;;-4.41;100.00;95719.06;1021850;28;20035;-73
2021/01/15 00:16:57;;;;;;;12.85;8.57;;;;;;;-4.46;100.00;95711.91;1022598;29;20103;-73
2021/01/15 00:17:33;;;;;;;14.63;8.47;;;;;;;-4.57;100.00;95700.28;1014903;29;20036;-72
2021/01/15 00:18:03;;;;;;;15.80;9.93;;;;;;;-4.43;100.00;95726.13;1014631;29;20633;-73
2021/01/15 00:18:34;;;;;;;16.60;9.43;;;;;;;-4.44;100.00;95720.22;1016045;29;20028;-73
2021/01/15 00:19:04;;;;;;;15.73;9.17;;;;;;;-4.45;100.00;95720.41;1019678;29;20024;-72
2021/01/15 00:19:35;;;;;;;14.20;8.77;;;;;;;-4.46;100.00;95721.34;1018871;29;20652;-75
2021/01/15 00:20:06;;;;;;;14.10;8.53;;;;;;;-4.50;100.00;95716.56;1026302;28;20022;-74
2021/01/15 00:20:36;;;;;;;15.40;9.93;;;;;;;-4.46;100.00;95727.28;1014745;29;20763;-72
2021/01/15 00:21:07;;;;;;;13.40;9.00;;;;;;;-4.47;100.00;95727.44;1018797;29;20031;-74
2021/01/15 00:21:48;;;;;;;14.57;9.47;;;;;;;-4.48;100.00;95731.75;1018329;28;20026;-74
2021/01/15 00:22:18;;;;;;;17.92;8.93;;;;;;;-4.50;100.00;95734.47;1023229;28;20039;-74
2021/01/15 00:22:49;;;;;;;13.30;7.90;;;;;;;-4.57;100.00;95727.66;1032205;28;20054;-74
2021/01/15 00:23:20;;;;;;;14.60;8.90;;;;;;;-4.55;100.00;95726.50;1023541;28;20558;-74
2021/01/15 00:23:52;;;;;;;16.75;9.25;;;;;;;-4.61;100.00;95711.81;1018387;29;20043;-74
2021/01/15 00:24:23;;;;;;;14.23;9.25;;;;;;;-4.76;100.00;95690.50;1018900;29;20500;-74
2021/01/15 00:24:53;;;;;;;18.40;9.33;;;;;;;-4.55;100.00;95720.59;1018440;29;20039;-72
2021/01/15 00:25:24;;;;;;;14.30;9.00;;;;;;;-4.57;100.00;95725.88;1019048;29;20432;-73
2021/01/15 00:25:54;;;;;;;16.87;9.17;;;;;;;-4.69;100.00;95700.81;1022929;28;20030;-73
2021/01/15 00:26:26;;;;;;;12.13;8.77;;;;;;;-4.69;100.00;95704.22;1026112;28;20078;-73
2021/01/15 00:26:56;;;;;;;14.13;8.63;;;;;;;-4.58;100.00;95726.06;1026681;28;20022;-73
2021/01/15 00:27:27;;;;;;;14.17;8.77;;;;;;;-4.61;100.00;95726.38;1023215;28;20638;-74
2021/01/15 00:27:57;;;;;;;12.13;8.07;;;;;;;-4.68;100.00;95710.91;1018460;29;20024;-74
2021/01/15 00:28:28;;;;;;;13.03;8.37;;;;;;;-4.66;100.00;95713.28;1018631;29;20039;-74
2021/01/15 00:28:58;;;;;;;11.43;8.83;;;;;;;-4.71;100.00;95703.56;1020704;29;20524;-73
2021/01/15 00:29:28;;;;;;;15.03;8.20;;;;;;;-4.61;100.00;95727.19;1022569;28;20082;-73
2021/01/15 00:29:59;;;;;;;15.63;8.83;;;;;;;-4.61;100.00;95722.06;1018369;29;20818;-73
2021/01/15 00:30:29;;;;;;;13.40;8.33;;;;;;;-4.61;100.00;95724.63;1018822;29;20087;-76
2021/01/15 00:31:00;;;;;;;12.00;8.40;;;;;;;-4.62;100.00;95724.81;1022817;28;20035;-73
2021/01/15 00:31:34;;;;;;;14.77;9.33;;;;;;;-4.64;100.00;95722.41;1022643;28;20035;-72
2021/01/15 00:32:05;;;;;;;16.83;8.88;;;;;;;-4.65;100.00;95725.13;1026645;28;20026;-73
2021/01/15 00:32:36;;;;;;;15.67;8.73;;;;;;;-4.67;100.00;95725.28;1018698;29;20123;-74
2021/01/15 00:33:06;;;;;;;15.20;8.73;;;;;;;-4.65;100.00;95725.94;1015215;29;20489;-74
2021/01/15 00:33:37;;;;;;;16.90;8.57;;;;;;;-4.77;100.00;95717.81;1018633;29;20068;-72
2021/01/15 00:34:09;;;;;;;14.30;8.63;;;;;;;-4.74;100.00;95719.25;1018650;29;20502;-70
2021/01/15 00:34:39;;;;;;;13.27;8.68;;;;;;;-4.68;100.00;95725.47;1014600;29;20063;-75
2021/01/15 00:35:10;;;;;;;14.17;7.93;;;;;;;-4.72;100.00;95722.47;1014395;29;20062;-74
2021/01/15 00:35:41;;;;;;;12.87;8.83;;;;;;;-4.71;100.00;95724.03;1015110;29;20065;-73
2021/01/15 00:36:11;;;;;;;12.87;8.03;;;;;;;-4.80;100.00;95714.81;1013528;29;20135;-75
2021/01/15 00:36:46;;;;;;;15.67;9.80;;;;;;;-4.72;100.00;95724.22;1015945;29;20035;-74
2021/01/15 00:37:16;;;;;;;18.15;8.57;;;;;;;-4.80;100.00;95713.03;1023443;28;20037;-74
2021/01/15 00:37:47;;;;;;;15.57;8.50;;;;;;;-4.73;100.00;95728.50;1023213;28;20039;-72
2021/01/15 00:38:17;;;;;;;11.47;8.33;;;;;;;-4.76;100.00;95718.66;1022335;28;20122;-73
2021/01/15 00:38:48;;;;;;;13.23;8.17;;;;;;;-4.83;100.00;95710.84;1022212;29;20059;-73
2021/01/15 00:39:18;;;;;;;12.00;8.33;;;;;;;-4.74;100.00;95726.94;1018662;29;20474;-74
2021/01/15 00:39:49;;;;;;;12.83;8.03;;;;;;;-4.77;100.00;95722.94;1021877;29;20027;-72
2021/01/15 00:40:19;;;;;;;13.73;8.53;;;;;;;-4.78;100.00;95723.91;1024207;28;20468;-73
2021/01/15 00:41:06;;;;;;;12.50;8.57;;;;;;;-4.87;100.00;95708.75;1022845;28;20035;-75
2021/01/15 00:41:37;;;;;;;11.85;8.65;;;;;;;-4.82;100.00;95716.75;1023145;28;20037;-73
2021/01/15 00:42:09;;;;;;;13.40;8.00;;;;;;;-4.88;100.00;95709.72;1024745;28;20121;-73
2021/01/15 00:42:40;;;;;;;14.65;8.02;;;;;;;-4.86;100.00;95712.91;1018689;29;20027;-74
2021/01/15 00:43:10;;;;;;;13.53;7.83;;;;;;;-4.89;100.00;95703.03;1022600;29;20045;-72
2021/01/15 00:43:41;;;;;;;10.60;8.17;;;;;;;-4.89;100.00;95708.94;1018435;29;20670;-72
2021/01/15 00:44:11;;;;;;;13.63;8.10;;;;;;;-4.85;100.00;95719.63;1018871;29;20027;-73
2021/01/15 00:44:45;;;;;;;14.70;9.00;;;;;;;-4.95;100.00;95701.13;1018434;29;20504;-72
2021/01/15 00:45:18;;;;;;;16.45;8.57;;;;;;;-4.86;100.00;95718.84;1018608;29;20024;-74
2021/01/15 00:45:49;;;;;;;14.07;7.85;;;;;;;-4.86;100.00;95712.91;1018743;29;20043;-72
2021/01/15 00:46:31;;;;;;;13.03;8.73;;;;;;;-4.84;100.00;95718.66;1016253;29;20036;-73
2021/01/15 00:47:02;;;;;;;12.30;7.80;;;;;;;-4.88;100.00;95719.97;1013369;29;20074;-75
2021/01/15 00:47:32;;;;;;;10.30;7.40;;;;;;;-4.88;100.00;95719.97;1016524;29;20032;-72
2021/01/15 00:48:03;;;;;;;12.77;8.33;;;;;;;-4.89;100.00;95718.38;1021771;28;20034;-73
2021/01/15 00:48:37;;;;;;;14.43;8.40;;;;;;;-4.89;100.00;95723.50;1020432;28;20016;-72
2021/01/15 00:49:08;;;;;;;12.25;8.40;;;;;;;-4.95;100.00;95714.72;1022634;29;20638;-73
2021/01/15 00:49:38;;;;;;;15.98;9.27;;;;;;;-4.92;100.00;95718.72;1022647;29;20499;-74
2021/01/15 00:50:10;;;;;;;13.47;8.73;;;;;;;-4.92;100.00;95728.94;1016084;29;20084;-73
2021/01/15 00:50:40;;;;;;;13.70;8.57;;;;;;;-4.93;100.00;95724.78;1015238;29;20078;-74
2021/01/15 00:51:11;;;;;;;18.13;8.43;;;;;;;-4.91;100.00;95725.41;1024348;28;20082;-74
2021/01/15 00:51:51;;;;;;;15.67;9.00;;;;;;;-4.94;100.00;95725.75;1020298;28;20016;-74
2021/01/15 00:52:22;;;;;;;12.57;7.53;;;;;;;-4.93;100.00;95722.22;1024714;28;20110;-73
2021/01/15 00:52:52;;;;;;;13.70;8.77;;;;;;;-4.98;100.00;95720.97;1032099;28;20037;-73
2021/01/15 00:53:23;;;;;;;15.47;9.20;;;;;;;-4.97;100.00;95724.31;1033118;28;20109;-72
2021/01/15 00:53:53;;;;;;;15.20;8.67;;;;;;;-4.99;100.00;95724.50;1036249;28;20512;-75
2021/01/15 00:54:24;;;;;;;14.70;9.17;;;;;;;-5.00;100.00;95722.91;1026712;28;20038;-74
2021/01/15 00:54:54;;;;;;;15.30;9.03;;;;;;;-5.04;100.00;95718.25;1024244;28;20403;-72
2021/01/15 00:55:25;;;;;;;12.27;8.37;;;;;;;-5.10;100.00;95701.81;1022409;29;20050;-73
2021/01/15 00:55:55;;;;;;;15.03;8.80;;;;;;;-5.04;100.00;95716.50;1022782;29;20042;-71
2021/01/15 00:56:26;;;;;;;10.90;8.13;;;;;;;-5.01;100.00;95720.50;1021876;29;20023;-74
2021/01/15 00:57:00;;;;;;;13.20;9.00;;;;;;;-5.11;100.00;95702.00;1019239;29;20594;-73
2021/01/15 00:57:35;;;;;;;18.17;9.57;;;;;;;-5.02;100.00;95726.59;1019472;28;20395;-74
2021/01/15 00:58:05;;;;;;;15.45;9.30;;;;;;;-5.03;100.00;95727.53;1018484;29;20047;-73
2021/01/15 00:58:36;;;;;;;14.50;8.77;;;;;;;-5.05;100.00;95727.72;1014429;29;20048;-72
2021/01/15 00:59:06;;;;;;;14.43;8.70;;;;;;;-5.05;100.00;95721.78;1018600;29;20506;-73
2021/01/15 00:59:37;;;;;;;11.20;8.67;;;;;;;-5.27;100.00;95683.16;1018641;29;20055;-74
2021/01/15 01:00:08;;;;;;;15.53;8.80;;;;;;;-5.21;100.00;95699.63;1020085;29;20061;-71
2021/01/15 01:00:38;;;;;;;15.50;9.35;;;;;;;-5.12;100.00;95713.19;1014813;29;20381;-72
2021/01/15 01:01:12;;;;;;;14.73;9.00;;;;;;;-5.13;100.00;95704.72;1018851;29;20038;-73
2021/01/15 01:01:42;;;;;;;14.75;9.35;;;;;;;-5.10;100.00;95714.59;1020908;29;20458;-73
2021/01/15 01:02:13;;;;;;;14.10;9.40;;;;;;;-5.10;100.00;95713.81;1018181;29;20055;-73
2021/01/15 01:02:43;;;;;;;14.30;9.87;;;;;;;-5.15;100.00;95709.19;1018787;29;20427;-73
2021/01/15 01:03:14;;;;;;;14.60;9.30;;;;;;;-5.18;100.00;95701.84;1018674;29;20052;-74
2021/01/15 01:03:44;;;;;;;16.00;9.20;;;;;;;-5.11;100.00;95713.00;1014725;29;20100;-75
2021/01/15 01:04:14;;;;;;;14.87;9.80;;;;;;;-5.12;100.00;95711.44;1018128;28;20769;-73
2021/01/15 01:04:45;;;;;;;12.73;9.40;;;;;;;-5.12;100.00;95711.44;1018680;29;20047;-74
2021/01/15 01:05:15;;;;;;;17.87;9.90;;;;;;;-5.23;100.00;95697.25;1021478;29;20019;-74
2021/01/15 01:05:46;;;;;;;15.43;10.07;;;;;;;-5.15;100.00;95711.75;1018625;29;20463;-73
2021/01/15 01:06:18;;;;;;;14.50;9.30;;;;;;;-5.19;100.00;95702.03;1020077;29;20042;-73
2021/01/15 01:06:48;;;;;;;16.88;9.75;;;;;;;-5.18;100.00;95714.66;1025596;28;20039;-74
2021/01/15 01:07:19;;;;;;;14.57;10.00;;;;;;;-5.25;100.00;95704.28;1030764;28;20030;-75
2021/01/15 01:07:49;;;;;;;14.17;9.13;;;;;;;-5.19;100.00;95713.06;1022328;28;20062;-73
2021/01/15 01:08:20;;;;;;;13.73;9.43;;;;;;;-5.22;100.00;95703.94;1018762;28;20031;-72
2021/01/15 01:08:50;;;;;;;15.63;9.87;;;;;;;-5.21;100.00;95707.28;1022688;29;20116;-75
2021/01/15 01:09:21;;;;;;;13.30;10.13;;;;;;;-5.23;100.00;95711.78;1022694;29;20662;-73
2021/01/15 01:09:51;;;;;;;14.47;10.13;;;;;;;-5.23;100.00;95712.59;1018107;29;20039;-72
2021/01/15 01:10:22;;;;;;;14.10;9.20;;;;;;;-5.24;100.00;95716.09;1018586;29;20023;-73
2021/01/15 01:10:52;;;;;;;14.97;9.83;;;;;;;-5.25;100.00;95716.28;1018781;29;20127;-72
2021/01/15 01:11:24;;;;;;;16.57;10.50;;;;;;;-5.28;100.00;95719.94;1018693;28;20034;-73
2021/01/15 01:11:57;;;;;;;15.80;9.60;;;;;;;-5.39;100.00;95696.50;1022694;28;20081;-74
2021/01/15 01:12:27;;;;;;;16.02;10.52;;;;;;;-5.31;100.00;95711.81;1022655;29;20079;-72
2021/01/15 01:12:58;;;;;;;15.97;10.27;;;;;;;-5.33;100.00;95717.09;1019951;28;20040;-74
2021/01/15 01:13:28;;;;;;;17.17;10.03;;;;;;;-5.35;100.00;95713.91;1022337;28;20039;-73
2021/01/15 01:13:59;;;;;;;16.17;10.20;;;;;;;-5.39;100.00;95709.28;1018802;29;20024;-73
2021/01/15 01:14:30;;;;;;;17.90;10.87;;;;;;;-5.36;100.00;95711.50;1022608;29;20070;-73
2021/01/15 01:15:00;;;;;;;17.60;10.20;;;;;;;-5.37;100.00;95709.91;1022556;28;20030;-72
2021/01/15 01:15:31;;;;;;;15.63;10.37;;;;;;;-5.49;100.00;95691.56;1025815;28;20054;-73
2021/01/15 01:16:01;;;;;;;15.63;10.60;;;;;;;-5.40;100.00;95712.78;1022581;28;20130;-74
2021/01/15 01:16:32;;;;;;;15.87;9.77;;;;;;;-5.41;100.00;95719.66;1025659;28;20099;-72
2021/01/15 01:17:02;;;;;;;16.43;10.57;;;;;;;-5.42;100.00;95707.06;1019374;28;20039;-74
2021/01/15 01:17:33;;;;;;;15.63;10.60;;;;;;;-5.46;100.00;95706.59;1015776;29;20053;-74
2021/01/15 01:18:03;;;;;;;20.27;12.67;;;;;;;-5.51;100.00;95698.59;1020258;28;20059;-72
2021/01/15 01:18:34;;;;;;;14.80;9.40;;;;;;;-5.39;100.00;95711.84;1023140;28;20549;-72
2021/01/15 01:19:05;;;;;;;15.73;9.73;;;;;;;-5.41;100.00;95712.00;1023794;28;20035;-72
2021/01/15 01:19:35;;;;;;;16.00;10.73;;;;;;;-5.54;100.00;95699.72;1019205;29;20032;-75
2021/01/15 01:20:06;;;;;;;15.80;9.83;;;;;;;-5.49;100.00;95702.59;1019352;29;20614;-72
2021/01/15 01:20:37;;;;;;;15.20;10.77;;;;;;;-5.40;100.00;95710.22;1023291;29;20427;-72
2021/01/15 01:21:07;;;;;;;14.53;10.13;;;;;;;-5.42;100.00;95718.06;1023540;29;20031;-73
2021/01/15 01:21:38;;;;;;;13.03;9.10;;;;;;;-5.53;100.00;95705.66;1017580;29;20557;-73
2021/01/15 01:22:08;;;;;;;13.17;9.67;;;;;;;-5.43;100.00;95715.66;1015582;28;20039;-73
2021/01/15 01:22:39;;;;;;;15.37;10.13;;;;;;;-5.42;100.00;95717.28;1019494;29;20086;-72
2021/01/15 01:23:09;;;;;;;13.97;10.57;;;;;;;-5.45;100.00;95714.06;1012559;29;20062;-75
2021/01/15 01:23:40;;;;;;;20.30;11.27;;;;;;;-5.51;100.00;95711.38;1019243;29;20028;-73
2021/01/15 01:24:11;;;;;;;15.57;10.20;;;;;;;-5.45;100.00;95721.75;1015185;29;20492;-74
2021/01/15 01:24:41;;;;;;;15.63;10.77;;;;;;;-5.47;100.00;95716.00;1015610;29;20091;-74
2021/01/15 01:25:11;;;;;;;17.07;10.63;;;;;;;-5.50;100.00;95712.97;1018660;29;20036;-74
2021/01/15 01:25:42;;;;;;;17.63;11.07;;;;;;;-5.59;100.00;95696.88;1023615;28;20038;-74
2021/01/15 01:26:13;;;;;;;16.93;9.83;;;;;;;-5.50;100.00;95721.44;1031456;28;20038;-75
2021/01/15 01:26:43;;;;;;;16.83;10.53;;;;;;;-5.46;100.00;95717.59;1025509;28;20470;-75
2021/01/15 01:27:14;;;;;;;16.77;10.70;;;;;;;-5.48;100.00;95714.41;1021308;28;20023;-73
2021/01/15 01:27:44;;;;;;;17.27;10.67;;;;;;;-5.48;100.00;95718.72;1027528;28;20037;-74
2021/01/15 01:28:15;;;;;;;17.60;10.67;;;;;;;-5.50;100.00;95716.34;1019310;29;20035;-72
2021/01/15 01:28:46;;;;;;;19.67;11.38;;;;;;;-5.50;100.00;95718.91;1023046;28;20027;-72
2021/01/15 01:29:16;;;;;;;17.27;11.03;;;;;;;-5.53;100.00;95718.44;1019292;29;20040;-72
2021/01/15 01:29:47;;;;;;;15.50;10.30;;;;;;;-5.52;100.00;95713.13;1019700;29;20094;-74
2021/01/15 01:30:17;;;;;;;19.90;10.93;;;;;;;-5.53;100.00;95715.88;1019406;29;20071;-74
2021/01/15 01:30:48;;;;;;;17.90;10.10;;;;;;;-5.58;100.00;95716.34;1015619;28;20053;-73
2021/01/15 01:31:18;;;;;;;15.70;10.57;;;;;;;-5.55;100.00;95721.13;1022339;28;20483;-74
2021/01/15 01:31:49;;;;;;;13.77;10.20;;;;;;;-5.56;100.00;95716.19;1019644;29;20036;-74
2021/01/15 01:32:19;;;;;;;18.67;12.43;;;;;;;-5.57;100.00;95714.56;1019360;29;20024;-72
2021/01/15 01:32:50;;;;;;;18.00;12.00;;;;;;;-5.59;100.00;95717.31;1019086;28;20039;-74
2021/01/15 01:33:20;;;;;;;17.70;10.83;;;;;;;-5.58;100.00;95721.44;1027408;28;20697;-72
2021/01/15 01:33:51;;;;;;;17.40;11.10;;;;;;;-5.60;100.00;95723.38;1023378;28;20567;-73
2021/01/15 01:34:21;;;;;;;17.73;11.27;;;;;;;-5.61;100.00;95711.56;1023422;28;20039;-74
2021/01/15 01:34:52;;;;;;;20.87;10.83;;;;;;;-5.57;100.00;95720.47;1019243;29;20111;-73
2021/01/15 01:35:22;;;;;;;19.63;11.60;;;;;;;-5.56;100.00;95714.44;1019586;29;20039;-73
2021/01/15 01:35:52;;;;;;;16.47;11.20;;;;;;;-5.59;100.00;95722.41;1023437;29;20031;-72
2021/01/15 01:36:23;;;;;;;23.70;12.27;;;;;;;-5.69;100.00;95704.72;1022489;28;20027;-73
2021/01/15 01:36:53;;;;;;;16.27;11.03;;;;;;;-5.61;100.00;95714.09;1023206;28;20038;-73
2021/01/15 01:37:24;;;;;;;19.37;11.03;;;;;;;-5.63;100.00;95716.03;1023531;28;20035;-73
2021/01/15 01:37:54;;;;;;;17.50;10.90;;;;;;;-5.64;100.00;95711.88;1016444;29;20776;-71
2021/01/15 01:38:25;;;;;;;16.43;11.13;;;;;;;-5.71;100.00;95705.81;1015610;29;20024;-73
2021/01/15 01:38:55;;;;;;;19.20;10.93;;;;;;;-5.62;100.00;95722.75;1017665;29;20023;-73
2021/01/15 01:39:26;;;;;;;16.10;11.03;;;;;;;-5.64;100.00;95719.53;1015359;29;20411;-73
2021/01/15 01:39:56;;;;;;;15.60;10.87;;;;;;;-5.64;100.00;95723.84;1018364;29;20028;-72
2021/01/15 01:40:27;;;;;;;16.43;10.90;;;;;;;-5.66;100.00;95715.56;1022072;28;20644;-73
2021/01/15 01:40:57;;;;;;;17.33;11.33;;;;;;;-5.77;100.00;95706.47;1023767;28;20067;-73
2021/01/15 01:41:28;;;;;;;14.77;10.67;;;;;;;-5.71;100.00;95716.03;1030087;28;20018;-71
2021/01/15 01:41:58;;;;;;;19.20;11.30;;;;;;;-5.71;100.00;95729.59;1027831;28;20025;-73
2021/01/15 01:42:29;;;;;;;14.63;10.70;;;;;;;-5.69;100.00;95716.69;1030719;28;20022;-72
2021/01/15 01:42:59;;;;;;;16.00;11.03;;;;;;;-5.79;100.00;95705.84;1023225;28;20031;-73
2021/01/15 01:43:30;;;;;;;21.57;11.23;;;;;;;-5.71;100.00;95723.72;1017130;29;20024;-71
2021/01/15 01:44:00;;;;;;;18.33;10.97;;;;;;;-5.72;100.00;95722.13;1015384;29;20027;-73
2021/01/15 01:44:31;;;;;;;15.70;10.47;;;;;;;-5.76;100.00;95723.41;1023247;29;20675;-73
2021/01/15 01:45:01;;;;;;;14.77;9.43;;;;;;;-5.76;100.00;95725.97;1023370;29;20027;-73
2021/01/15 01:45:32;;;;;;;14.83;10.10;;;;;;;-5.79;100.00;95721.19;1023065;28;20058;-72
2021/01/15 01:46:04;;;;;;;18.30;10.60;;;;;;;-5.84;100.00;95710.63;1019457;29;20027;-73
2021/01/15 01:46:34;;;;;;;16.50;10.15;;;;;;;-5.88;100.00;95711.91;1018731;29;20834;-72
2021/01/15 01:47:05;;;;;;;16.30;10.97;;;;;;;-5.78;100.00;95722.75;1023185;29;20023;-72
2021/01/15 01:47:35;;;;;;;16.17;10.43;;;;;;;-5.99;100.00;95701.09;1023431;29;20601;-73
2021/01/15 01:48:06;;;;;;;14.20;10.50;;;;;;;-5.82;100.00;95729.94;1023001;29;20030;-73
2021/01/15 01:48:37;;;;;;;14.75;9.73;;;;;;;-5.83;100.00;95725.00;1023369;29;20023;-75
2021/01/15 01:49:07;;;;;;;16.90;9.40;;;;;;;-5.87;100.00;95728.81;1023361;29;20015;-73
2021/01/15 01:49:38;;;;;;;14.83;9.43;;;;;;;-5.84;100.00;95723.41;1023287;29;20075;-75
2021/01/15 01:50:09;;;;;;;11.73;9.23;;;;;;;-5.85;100.00;95724.38;1027070;28;20489;-71
2021/01/15 01:50:42;;;;;;;13.50;9.27;;;;;;;-5.88;100.00;95722.13;1027243;28;20019;-71
2021/01/15 01:51:13;;;;;;;16.13;9.95;;;;;;;-5.90;100.00;95718.94;1022832;29;20015;-72
2021/01/15 01:51:45;;;;;;;14.83;9.23;;;;;;;-5.97;100.00;95703.47;1020926;28;20031;-73
2021/01/15 01:52:15;;;;;;;17.75;11.10;;;;;;;-5.94;100.00;95721.81;1021044;29;20026;-72
2021/01/15 01:52:45;;;;;;;15.93;9.60;;;;;;;-5.86;100.00;95722.78;1019244;29;20629;-74
2021/01/15 01:53:18;;;;;;;13.63;9.10;;;;;;;-5.87;100.00;95723.72;1026032;28;20022;-74
2021/01/15 01:53:48;;;;;;;12.35;8.95;;;;;;;-5.88;100.00;95732.34;1015259;29;20028;-73
2021/01/15 01:54:18;;;;;;;18.37;10.47;;;;;;;-5.94;100.00;95719.28;1011558;29;20374;-74
2021/01/15 01:54:49;;;;;;;15.53;9.60;;;;;;;-5.95;100.00;95720.25;1019616;29;20020;-72
2021/01/15 01:55:19;;;;;;;16.30;9.10;;;;;;;-6.06;100.00;95701.91;1023341;29;20036;-73
2021/01/15 01:55:50;;;;;;;13.43;9.17;;;;;;;-5.94;100.00;95732.03;1019198;29;20047;-74
2021/01/15 01:56:20;;;;;;;18.37;9.77;;;;;;;-6.06;100.00;95709.56;1015003;29;20012;-74
2021/01/15 01:56:51;;;;;;;17.53;9.97;;;;;;;-5.92;100.00;95732.66;1018390;29;20019;-74
2021/01/15 01:57:21;;;;;;;15.30;9.43;;;;;;;-5.94;100.00;95729.50;1019636;28;20492;-73
2021/01/15 01:57:52;;;;;;;14.73;9.30;;;;;;;-5.91;100.00;95725.78;1023169;28;20081;-73
2021/01/15 01:58:22;;;;;;;13.97;8.67;;;;;;;-5.94;100.00;95728.69;1027028;28;20007;-73
2021/01/15 01:58:53;;;;;;;16.50;9.43;;;;;;;-5.96;100.00;95721.22;1031418;28;20466;-71
2021/01/15 01:59:23;;;;;;;15.40;9.57;;;;;;;-5.94;100.00;95724.38;1027328;28;20045;-73
2021/01/15 01:59:54;;;;;;;14.53;9.27;;;;;;;-6.03;100.00;95706.69;1018846;29;20026;-70
2021/01/15 02:00:24;;;;;;;18.27;10.03;;;;;;;-5.96;100.00;95733.97;1019423;29;20058;-73
2021/01/15 02:00:59;;;;;;;13.10;9.63;;;;;;;-5.98;100.00;95727.44;1019468;29;20043;-74
2021/01/15 02:01:30;;;;;;;18.70;9.82;;;;;;;-6.11;100.00;95706.69;1023346;28;20530;-74
2021/01/15 02:02:00;;;;;;;16.13;9.47;;;;;;;-6.08;100.00;95714.81;1027392;28;20030;-74
2021/01/15 02:02:31;;;;;;;17.90;8.70;;;;;;;-6.01;100.00;95725.19;1031298;28;20465;-74
2021/01/15 02:03:02;;;;;;;14.47;9.13;;;;;;;-6.02;100.00;95724.41;1023235;29;20031;-73
2021/01/15 02:03:33;;;;;;;13.65;8.68;;;;;;;-6.09;100.00;95705.56;1015380;29;20031;-73
2021/01/15 02:04:04;;;;;;;14.30;9.23;;;;;;;-6.10;100.00;95709.09;1015301;29;20036;-73
2021/01/15 02:04:34;;;;;;;15.73;9.57;;;;;;;-6.00;100.00;95725.06;1019217;29;20074;-73
2021/01/15 02:05:06;;;;;;;13.10;8.97;;;;;;;-6.00;100.00;95732.72;1026407;28;20681;-73
2021/01/15 02:05:36;;;;;;;18.23;10.15;;;;;;;-6.22;100.00;95690.72;1015388;29;20819;-73
2021/01/15 02:06:07;;;;;;;12.80;9.03;;;;;;;-6.00;100.00;95726.78;1019325;28;20031;-73
2021/01/15 02:06:37;;;;;;;13.63;9.33;;;;;;;-6.00;100.00;95725.06;1022511;29;20045;-73
2021/01/15 02:07:08;;;;;;;15.07;10.20;;;;;;;-6.15;100.00;95711.31;1019197;29;20051;-72
2021/01/15 02:07:38;;;;;;;21.43;11.10;;;;;;;-6.04;100.00;95730.63;1023337;28;20550;-74
2021/01/15 02:08:09;;;;;;;15.97;9.33;;;;;;;-6.08;100.00;95714.81;1015702;29;20031;-73
2021/01/15 02:08:39;;;;;;;16.17;9.57;;;;;;;-6.05;100.00;95731.59;1021324;29;20023;-73
2021/01/15 02:09:10;;;;;;;16.37;9.90;;;;;;;-6.06;100.00;95732.56;1023276;29;20050;-73
2021/01/15 02:10:03;;;;;;;14.93;10.20;;;;;;;-6.08;100.00;95722.47;1016955;29;20499;-73
2021/01/15 02:10:52;;;;;;;16.65;9.45;;;;;;;-6.10;100.00;95729.53;1006994;29;20448;-75
2021/01/15 02:11:35;;;;;;;14.55;9.75;;;;;;;-6.21;100.00;95711.94;1020885;28;20064;-72
2021/01/15 02:12:25;;;;;;;14.55;9.57;;;;;;;-6.11;100.00;95729.66;1027178;28;20101;-73
2021/01/15 02:13:02;;;;;;;13.27;8.98;;;;;;;-6.16;100.00;95725.03;1022841;28;20475;-73
2021/01/15 02:14:04;;;;;;;12.30;8.70;;;;;;;-6.25;100.00;95705.56;1018875;29;20024;-75
2021/01/15 02:14:54;;;;;;;14.55;9.02;;;;;;;-6.15;100.00;95731.75;1020187;29;20027;-75
2021/01/15 02:15:38;;;;;;;12.15;8.27;;;;;;;-6.24;100.00;95712.25;1026346;28;20122;-74
2021/01/15 02:16:17;;;;;;;17.00;8.50;;;;;;;-6.18;100.00;95721.84;1022145;29;20073;-74
2021/01/15 02:16:52;;;;;;;13.32;8.38;;;;;;;-6.18;100.00;95722.63;1019045;29;20039;-71
2021/01/15 02:17:25;;;;;;;20.55;9.88;;;;;;;-6.24;100.00;95713.03;1022655;28;20051;-72
2021/01/15 02:18:07;;;;;;;15.38;9.27;;;;;;;-6.22;100.00;95723.13;1023282;29;20020;-72
2021/01/15 02:18:49;;;;;;;20.52;10.25;;;;;;;-6.29;100.00;95704.28;1015133;29;20035;-71
2021/01/15 02:19:22;;;;;;;20.58;11.80;;;;;;;-6.16;100.00;95725.03;1015421;29;20037;-74
2021/01/15 02:20:13;;;;;;;21.23;11.40;;;;;;;-6.21;100.00;95725.50;1015291;29;20024;-73
2021/01/15 02:21:03;;;;;;;;;;;;;;;-6.22;100.00;95723.13;1022272;28;20503;-72
2021/01/15 02:21:46;;;;;;;18.17;10.65;;;;;;;-6.24;100.00;95727.56;1028673;28;19905;-71
2021/01/15 02:22:38;;;;;;;16.02;10.25;;;;;;;-6.28;100.00;95732.19;1032547;28;20080;-72
2021/01/15 02:23:11;;;;;;;20.90;10.75;;;;;;;-6.27;100.00;95725.34;1031204;28;20026;-76
2021/01/15 02:23:43;;;;;;;18.00;10.02;;;;;;;-6.33;100.00;95721.69;1022855;29;20027;-72
2021/01/15 02:24:35;;;;;;;18.80;10.05;;;;;;;-6.29;100.00;95724.72;1014712;29;20027;-73
2021/01/15 02:25:28;;;;;;;17.38;9.52;;;;;;;-6.31;100.00;95727.41;1018601;29;20094;-73
2021/01/15 02:26:05;;;;;;;15.05;10.45;;;;;;;-6.33;100.00;95723.44;1022781;28;20034;-72
2021/01/15 02:27:02;;;;;;;16.63;10.05;;;;;;;-6.35;100.00;95725.34;1026213;28;20050;-73
2021/01/15 02:28:10;;;;;;;19.70;9.50;;;;;;;-6.43;100.00;95724.38;1021987;28;20463;-71